createdAt,value
2022-10-25T00:02:38.688Z,98510.53
2022-10-25T00:05:42.003Z,98504.44
2022-10-25T00:08:45.001Z,98489.44
2022-10-25T00:11:47.842Z,98475.22
2022-10-25T00:14:50.541Z,98478.78
2022-10-25T00:17:53.503Z,98481.63
2022-10-25T00:20:55.950Z,98473.69
2022-10-25T00:23:58.854Z,98494.22
2022-10-25T00:27:01.370Z,98498.59
2022-10-25T00:30:06.549Z,98507.47
2022-10-25T00:33:08.960Z,98516.41
2022-10-25T00:36:14.879Z,98505.44
2022-10-25T00:39:17.409Z,98496.44
2022-10-25T00:42:23.273Z,98503.62
2022-10-25T00:45:27.249Z,98510.62
2022-10-25T00:48:30.078Z,98519.59
2022-10-25T00:51:52.554Z,98530.25
2022-10-25T00:54:55.552Z,98536.66
2022-10-25T00:58:09.775Z,98528.56
2022-10-25T01:01:14.587Z,98518.62
2022-10-25T01:04:18.791Z,98521.25
2022-10-25T01:07:21.625Z,98513.16
2022-10-25T01:10:24.276Z,98515.88
2022-10-25T01:13:27.161Z,98508.69
2022-10-25T01:16:37.608Z,98525.72
2022-10-25T01:19:49.579Z,98528.41
2022-10-25T01:23:33.298Z,98531.97
2022-10-25T01:27:00.608Z,98530.25
2022-10-25T01:30:11.235Z,98525.72
2022-10-25T01:33:19.842Z,98529.34
2022-10-25T01:36:44.115Z,98529.34
2022-10-25T01:39:58.468Z,98542.84
2022-10-25T01:43:33.345Z,98541.03
2022-10-25T01:46:54.826Z,98535.66
2022-10-25T01:50:03.522Z,98523.09
2022-10-25T01:53:06.329Z,98521.31
2022-10-25T01:56:08.790Z,98524.03
2022-10-25T01:59:23.892Z,98527.69
2022-10-25T02:02:30.983Z,98544.66
2022-10-25T02:05:42.966Z,98534.62
2022-10-25T02:08:48.931Z,98539.94
2022-10-25T02:11:52.162Z,98536.44
2022-10-25T02:15:10.959Z,98543.56
2022-10-25T02:18:16.434Z,98546.13
2022-10-25T02:21:19.999Z,98525.91
2022-10-25T02:24:23.953Z,98523.41
2022-10-25T02:27:27.672Z,98540.75
2022-10-25T02:30:32.859Z,98535.47
2022-10-25T02:33:36.493Z,98532.66
2022-10-25T02:36:38.923Z,98504.34
2022-10-25T02:39:41.884Z,98524.41
2022-10-25T02:42:44.463Z,98510.09
2022-10-25T02:45:47.256Z,98513.63
2022-10-25T02:48:50.584Z,98515.37
2022-10-25T02:51:53.360Z,98501.59
2022-10-25T02:54:56.293Z,98510.94
2022-10-25T02:57:59.128Z,98507.34
2022-10-25T03:01:02.145Z,98499.19
2022-10-25T03:04:05.175Z,98502.75
2022-10-25T03:07:07.679Z,98503.97
2022-10-25T03:10:10.730Z,98516.66
2022-10-25T03:13:13.497Z,98521.31
2022-10-25T03:16:16.903Z,98504.94
2022-10-25T03:19:20.112Z,98525.56
2022-10-25T03:22:22.949Z,98528.53
2022-10-25T03:25:25.551Z,98542.25
2022-10-25T03:28:29.484Z,98532.69
2022-10-25T03:31:32.062Z,98526.16
2022-10-25T03:34:34.867Z,98535.03
2022-10-25T03:37:37.362Z,98530.50
2022-10-25T03:40:40.221Z,98523.22
2022-10-25T03:43:43.131Z,98515.94
2022-10-25T03:46:45.941Z,98515.06
2022-10-25T03:49:48.409Z,98515.72
2022-10-25T03:52:51.207Z,98514.69
2022-10-25T03:55:53.702Z,98524.56
2022-10-25T03:58:56.509Z,98545.31
2022-10-25T04:01:59.091Z,98542.75
2022-10-25T04:05:01.873Z,98547.28
2022-10-25T04:08:04.667Z,98555.38
2022-10-25T04:11:07.603Z,98547.28
2022-10-25T04:14:10.097Z,98543.78
2022-10-25T04:17:12.904Z,98542.91
2022-10-25T04:20:15.454Z,98539.41
2022-10-25T04:23:18.216Z,98538.53
2022-10-25T04:26:20.701Z,98552.87
2022-10-25T04:29:23.654Z,98536.75
2022-10-25T04:32:26.301Z,98535.97
2022-10-25T04:35:29.011Z,98532.47
2022-10-25T04:38:31.502Z,98539.75
2022-10-25T04:41:34.299Z,98540.56
2022-10-25T04:44:36.769Z,98545.09
2022-10-25T04:47:39.835Z,98542.44
2022-10-25T04:50:42.950Z,98545.09
2022-10-25T04:53:46.005Z,98555.00
2022-10-25T04:56:49.128Z,98547.72
2022-10-25T04:59:53.059Z,98537.28
2022-10-25T05:02:56.609Z,98544.06
2022-10-25T05:06:20.297Z,98520.28
2022-10-25T05:09:23.271Z,98547.47
2022-10-25T05:12:26.853Z,98550.97
2022-10-25T05:15:30.236Z,98542.81
2022-10-25T05:18:34.725Z,98531.97
2022-10-25T05:21:37.471Z,98526.66
2022-10-25T05:24:40.452Z,98538.09
2022-10-25T05:27:45.566Z,98548.41
2022-10-25T05:30:48.826Z,98554.16
2022-10-25T05:33:53.859Z,98545.28
2022-10-25T05:36:57.503Z,98546.13
2022-10-25T05:39:59.978Z,98554.28
2022-10-25T05:43:03.208Z,98550.72
2022-10-25T05:46:08.558Z,98553.06
2022-10-25T05:49:12.040Z,98561.13
2022-10-25T05:52:14.519Z,98567.78
2022-10-25T05:55:17.265Z,98586.84
2022-10-25T05:58:19.724Z,98604.81
2022-10-25T06:01:24.218Z,98612.91
2022-10-25T06:04:27.501Z,98610.28
2022-10-25T06:07:30.008Z,98623.69
2022-10-25T06:10:32.787Z,98628.22
2022-10-25T06:13:37.330Z,98632.75
2022-10-25T06:16:40.069Z,98646.25
2022-10-25T06:19:42.847Z,98641.72
2022-10-25T06:22:46.050Z,98644.47
2022-10-25T06:25:48.795Z,98631.00
2022-10-25T06:28:53.409Z,98630.19
2022-10-25T06:31:55.938Z,98653.59
2022-10-25T06:34:58.713Z,98675.19
2022-10-25T06:38:01.774Z,98616.03
2022-10-25T06:41:06.902Z,98678.97
2022-10-25T06:44:09.488Z,98675.37
2022-10-25T06:47:17.359Z,98678.06
2022-10-25T06:50:20.414Z,98671.00
2022-10-25T06:53:23.255Z,98678.06
2022-10-25T06:56:26.652Z,98681.50
2022-10-25T06:59:29.665Z,98687.59
2022-10-25T07:02:32.310Z,98685.09
2022-10-25T07:05:35.117Z,98684.69
2022-10-25T07:08:39.928Z,98689.69
2022-10-25T07:11:45.668Z,98685.50
2022-10-25T07:14:48.138Z,98674.03
2022-10-25T07:17:50.957Z,98672.28
2022-10-25T07:20:58.851Z,98663.47
2022-10-25T07:24:01.907Z,98664.28
2022-10-25T07:27:04.455Z,98659.81
2022-10-25T07:30:07.750Z,98658.87
2022-10-25T07:33:10.398Z,98671.41
2022-10-25T07:36:13.096Z,98668.66
2022-10-25T07:39:15.754Z,98689.22
2022-10-25T07:42:18.461Z,98691.09
2022-10-25T07:45:23.636Z,98685.66
2022-10-25T07:48:32.650Z,98690.19
2022-10-25T07:51:35.130Z,98691.84
2022-10-25T07:54:37.932Z,98696.38
2022-10-25T07:57:40.698Z,98693.44
2022-10-25T08:00:43.524Z,98697.03
2022-10-25T08:03:46.385Z,98712.22
2022-10-25T08:06:48.842Z,98707.63
2022-10-25T08:09:51.700Z,98718.28
2022-10-25T08:12:55.160Z,98726.16
2022-10-25T08:15:57.955Z,98719.44
2022-10-25T08:19:00.348Z,98720.91
2022-10-25T08:22:03.474Z,98720.69
2022-10-25T08:25:06.453Z,98725.88
2022-10-25T08:28:09.458Z,98722.22
2022-10-25T08:31:11.944Z,98718.47
2022-10-25T08:34:14.733Z,98721.97
2022-10-25T08:37:17.405Z,98719.38
2022-10-25T08:40:34.059Z,98714.88
2022-10-25T08:44:05.621Z,98709.41
2022-10-25T08:47:24.414Z,98707.56
2022-10-25T08:50:42.328Z,98705.78
2022-10-25T08:53:50.281Z,98708.31
2022-10-25T08:57:15.189Z,98718.16
2022-10-25T09:00:22.544Z,98715.34
2022-10-25T09:03:26.399Z,98719.63
2022-10-25T09:06:42.908Z,98732.84
2022-10-25T09:10:20.365Z,98737.00
2022-10-25T09:16:46.194Z,98743.09
2022-10-25T09:20:05.938Z,98737.94
2022-10-25T09:23:14.280Z,98742.25
2022-10-25T09:26:25.818Z,98742.16
2022-10-25T09:29:35.952Z,98747.44
2022-10-25T09:32:41.756Z,98752.75
2022-10-25T09:35:55.216Z,98749.34
2022-10-25T09:39:00.431Z,98754.12
2022-10-25T09:42:03.503Z,98746.47
2022-10-25T09:45:22.262Z,98746.72
2022-10-25T09:48:37.291Z,98753.19
2022-10-25T09:52:06.076Z,98746.13
2022-10-25T09:55:33.604Z,98756.94
2022-10-25T09:58:41.609Z,98747.78
2022-10-25T10:01:44.280Z,98749.41
2022-10-25T10:04:48.975Z,98740.25
2022-10-25T10:07:51.974Z,98747.97
2022-10-25T10:10:55.258Z,98749.69
2022-10-25T10:14:11.142Z,98754.03
2022-10-25T10:17:16.067Z,98754.97
2022-10-25T10:20:18.730Z,98742.97
2022-10-25T10:23:21.475Z,98748.03
2022-10-25T10:26:23.892Z,98751.66
2022-10-25T10:29:31.868Z,98764.00
2022-10-25T10:35:42.739Z,98764.66
2022-10-25T10:38:45.433Z,98769.72
2022-10-25T10:42:03.515Z,98759.13
2022-10-25T10:45:07.885Z,98751.47
2022-10-25T10:48:22.479Z,98755.31
2022-10-25T10:51:44.357Z,98753.72
2022-10-25T10:54:48.449Z,98745.19
2022-10-25T10:57:52.537Z,98760.09
2022-10-25T11:01:10.650Z,98762.56
2022-10-25T11:04:13.458Z,98757.31
2022-10-25T11:07:35.902Z,98759.84
2022-10-25T11:10:40.221Z,98761.09
2022-10-25T11:13:51.817Z,98766.56
2022-10-25T11:17:16.841Z,98760.69
2022-10-25T11:20:27.972Z,98751.00
2022-10-25T11:23:32.959Z,98742.56
2022-10-25T11:26:48.786Z,98762.50
2022-10-25T11:30:07.560Z,98752.31
2022-10-25T11:33:33.860Z,98762.06
2022-10-25T11:36:45.821Z,98759.34
2022-10-25T11:39:57.648Z,98764.22
2022-10-25T11:43:21.555Z,98762.00
2022-10-25T11:46:45.481Z,98767.94
2022-10-25T11:50:18.622Z,98747.69
2022-10-25T11:53:45.112Z,98753.00
2022-10-25T11:56:59.536Z,98753.72
2022-10-25T12:00:11.110Z,98752.78
2022-10-25T12:03:43.397Z,98745.09
2022-10-25T12:06:52.362Z,98748.94
2022-10-25T12:10:03.266Z,98744.09
2022-10-25T12:13:13.722Z,98744.41
2022-10-25T12:16:18.796Z,98746.44
2022-10-25T12:19:27.532Z,98744.47
2022-10-25T12:22:42.670Z,98739.19
2022-10-25T12:25:48.526Z,98745.97
2022-10-25T12:28:51.464Z,98741.22
2022-10-25T12:31:57.999Z,98750.25
2022-10-25T12:35:04.458Z,98741.50
2022-10-25T12:38:31.617Z,98748.63
2022-10-25T12:41:36.626Z,98739.25
2022-10-25T12:45:00.137Z,98749.19
2022-10-25T12:48:16.507Z,98753.50
2022-10-25T12:51:24.699Z,98740.81
2022-10-25T12:54:44.560Z,98756.38
2022-10-25T12:57:53.103Z,98761.56
2022-10-25T13:01:05.839Z,98765.16
2022-10-25T13:04:33.172Z,98754.94
2022-10-25T13:07:36.629Z,98757.25
2022-10-25T13:10:44.387Z,98762.88
2022-10-25T13:13:51.945Z,98761.56
2022-10-25T13:17:17.850Z,98759.13
2022-10-25T13:20:22.834Z,98769.19
2022-10-25T13:23:43.698Z,98766.97
2022-10-25T13:27:16.622Z,98770.59
2022-10-25T13:30:25.305Z,98768.13
2022-10-25T13:33:29.240Z,98765.28
2022-10-25T13:36:54.466Z,98759.84
2022-10-25T13:40:07.947Z,98760.88
2022-10-25T13:43:20.484Z,98764.34
2022-10-25T13:46:38.510Z,98754.84
2022-10-25T13:49:44.335Z,98756.72
2022-10-25T13:53:01.720Z,98755.72
2022-10-25T13:56:07.299Z,98739.50
2022-10-25T13:59:45.201Z,98751.16
2022-10-25T14:03:09.061Z,98760.78
2022-10-25T14:06:22.473Z,98759.63
2022-10-25T14:09:33.486Z,98764.50
2022-10-25T14:12:36.345Z,98769.66
2022-10-25T14:15:47.825Z,98778.59
2022-10-25T14:18:52.249Z,98788.03
2022-10-25T14:21:55.417Z,98790.72
2022-10-25T14:24:59.970Z,98793.75
2022-10-25T14:28:11.835Z,98798.56
2022-10-25T14:31:19.673Z,98799.91
2022-10-25T14:34:25.153Z,98795.75
2022-10-25T14:37:27.899Z,98802.47
2022-10-25T14:40:31.773Z,98811.87
2022-10-25T14:43:37.221Z,98807.78
2022-10-25T14:46:44.416Z,98803.34
2022-10-25T14:49:47.286Z,98809.50
2022-10-25T14:52:51.011Z,98805.31
2022-10-25T14:55:57.730Z,98803.75
2022-10-25T14:59:01.394Z,98803.31
2022-10-25T15:02:18.513Z,98808.25
2022-10-25T15:05:23.607Z,98807.00
2022-10-25T15:08:27.510Z,98811.94
2022-10-25T15:11:32.942Z,98821.31
2022-10-25T15:14:35.993Z,98816.12
2022-10-25T15:17:38.833Z,98819.13
2022-10-25T15:20:41.713Z,98822.16
2022-10-25T15:24:05.266Z,98809.25
2022-10-25T15:27:25.612Z,98820.41
2022-10-25T15:30:59.025Z,98754.94
2022-10-25T15:34:05.666Z,98827.09
2022-10-25T15:37:13.727Z,98753.59
2022-10-25T15:40:17.701Z,98800.38
2022-10-25T15:43:21.777Z,98803.69
2022-10-25T15:46:34.602Z,98810.94
2022-10-25T15:49:38.009Z,98815.91
2022-10-25T15:52:41.570Z,98791.78
2022-10-25T15:55:44.747Z,98822.44
2022-10-25T15:58:48.306Z,98815.59
2022-10-25T16:01:53.605Z,98817.78
2022-10-25T16:04:58.520Z,98823.16
2022-10-25T16:08:04.178Z,98817.50
2022-10-25T16:11:17.187Z,98817.31
2022-10-25T16:14:25.580Z,98829.56
2022-10-25T16:17:28.400Z,98821.94
2022-10-25T16:20:31.470Z,98831.38
2022-10-25T16:23:34.175Z,98820.19
2022-10-25T16:26:42.998Z,98814.53
2022-10-25T16:29:47.459Z,98812.94
2022-10-25T16:32:50.668Z,98824.84
2022-10-25T16:35:53.571Z,98823.44
2022-10-25T16:38:56.159Z,98821.84
2022-10-25T16:41:58.909Z,98824.75
2022-10-25T16:45:02.175Z,98833.84
2022-10-25T16:48:05.832Z,98828.50
2022-10-25T16:51:13.615Z,98823.47
2022-10-25T16:54:18.742Z,98850.13
2022-10-25T16:57:23.323Z,98848.72
2022-10-25T17:00:28.053Z,98843.53
2022-10-25T17:03:30.473Z,98845.56
2022-10-25T17:06:41.403Z,98848.50
2022-10-25T17:09:44.769Z,98846.75
2022-10-25T17:12:49.787Z,98853.25
2022-10-25T17:15:52.548Z,98857.09
2022-10-25T17:18:55.782Z,98855.59
2022-10-25T17:21:58.551Z,98849.50
2022-10-25T17:25:01.293Z,98853.44
2022-10-25T17:28:04.395Z,98858.19
2022-10-25T17:31:09.636Z,98862.16
2022-10-25T17:34:12.944Z,98869.56
2022-10-25T17:37:15.833Z,98869.91
2022-10-25T17:40:18.509Z,98878.22
2022-10-25T17:43:21.317Z,98864.31
2022-10-25T17:46:29.368Z,98873.28
2022-10-25T17:49:32.377Z,98881.50
2022-10-25T17:52:35.292Z,98872.53
2022-10-25T17:55:41.124Z,98885.22
2022-10-25T17:58:45.815Z,98880.63
2022-10-25T18:01:48.803Z,98880.56
2022-10-25T18:05:19.002Z,98889.75
2022-10-25T18:08:14.841Z,98889.00
2022-10-25T18:11:22.136Z,98889.13
2022-10-25T18:14:24.606Z,98887.13
2022-10-25T18:17:27.425Z,98881.66
2022-10-25T18:20:30.110Z,98877.38
2022-10-25T18:23:33.522Z,98875.69
2022-10-25T18:26:36.397Z,98875.50
2022-10-25T18:29:40.023Z,98869.97
2022-10-25T18:32:42.763Z,98868.06
2022-10-25T18:35:45.791Z,98867.25
2022-10-25T18:38:48.969Z,98861.22
2022-10-25T18:41:52.557Z,98861.75
2022-10-25T18:44:55.467Z,98864.06
2022-10-25T18:47:59.401Z,98869.16
2022-10-25T18:51:08.718Z,98867.59
2022-10-25T18:54:12.522Z,98851.47
2022-10-25T18:57:15.835Z,98850.72
2022-10-25T19:00:19.378Z,98845.47
2022-10-25T19:03:22.148Z,98851.00
2022-10-25T19:06:25.531Z,98854.94
2022-10-25T19:09:28.712Z,98854.28
2022-10-25T19:12:32.075Z,98853.31
2022-10-25T19:15:35.122Z,98864.16
2022-10-25T19:18:39.053Z,98861.69
2022-10-25T19:21:43.031Z,98867.19
2022-10-25T19:24:46.196Z,98867.34
2022-10-25T19:27:49.457Z,98869.19
2022-10-25T19:30:52.762Z,98871.22
2022-10-25T19:33:58.421Z,98874.13
2022-10-25T19:37:04.366Z,98873.59
2022-10-25T19:40:08.633Z,98873.69
2022-10-25T19:43:14.295Z,98866.69
2022-10-25T19:46:18.262Z,98867.53
2022-10-25T19:49:21.380Z,98864.91
2022-10-25T19:52:25.168Z,98872.87
2022-10-25T19:55:27.905Z,98879.28
2022-10-25T19:58:30.945Z,98874.94
2022-10-25T20:01:34.107Z,98876.09
2022-10-25T20:04:37.470Z,98880.72
2022-10-25T20:07:40.185Z,98886.13
2022-10-25T20:10:43.204Z,98887.19
2022-10-25T20:13:46.006Z,98896.91
2022-10-25T20:16:49.246Z,98887.19
2022-10-25T20:19:53.660Z,98896.84
2022-10-25T20:22:57.448Z,98893.19
2022-10-25T20:26:00.738Z,98888.00
2022-10-25T20:29:24.750Z,98906.50
2022-10-25T20:32:27.905Z,98907.38
2022-10-25T20:35:35.647Z,98908.25
2022-10-25T20:38:38.670Z,98908.19
2022-10-25T20:41:43.298Z,98903.87
2022-10-25T20:44:46.773Z,98911.19
2022-10-25T20:47:50.834Z,98909.75
2022-10-25T20:50:54.248Z,98919.50
2022-10-25T20:53:57.188Z,98920.44
2022-10-25T20:57:00.635Z,98918.63
2022-10-25T21:00:07.902Z,98924.91
2022-10-25T21:03:11.376Z,98929.38
2022-10-25T21:06:14.700Z,98924.91
2022-10-25T21:09:17.337Z,98921.59
2022-10-25T21:12:20.187Z,98927.81
2022-10-25T21:15:22.786Z,98926.06
2022-10-25T21:18:29.271Z,98927.03
2022-10-25T21:21:31.874Z,98908.53
2022-10-25T21:27:38.310Z,98920.06
2022-10-25T21:30:41.179Z,98924.63
2022-10-25T21:33:49.910Z,98921.06
2022-10-25T21:36:53.951Z,98934.59
2022-10-25T21:39:56.885Z,98930.06
2022-10-25T21:42:59.802Z,98928.38
2022-10-25T21:46:05.143Z,98921.25
2022-10-25T21:49:08.040Z,98928.44
2022-10-25T21:52:10.481Z,98929.34
2022-10-25T21:55:13.279Z,98929.25
2022-10-25T21:58:15.794Z,98931.31
2022-10-25T22:01:21.055Z,98918.19
2022-10-25T22:04:24.029Z,98926.09
2022-10-25T22:07:26.449Z,98942.19
2022-10-25T22:10:29.224Z,98935.84
2022-10-25T22:13:31.779Z,98941.97
2022-10-25T22:16:34.817Z,98941.09
2022-10-25T22:19:37.961Z,98936.72
2022-10-25T22:22:41.022Z,98942.09
2022-10-25T22:25:43.598Z,98936.75
2022-10-25T22:28:46.609Z,98933.06
2022-10-25T22:31:49.076Z,98938.56
2022-10-25T22:34:51.834Z,98939.56
2022-10-25T22:37:54.467Z,98939.59
2022-10-25T22:40:58.723Z,98934.59
2022-10-25T22:44:01.443Z,98937.28
2022-10-25T22:47:04.445Z,98935.56
2022-10-25T22:50:07.174Z,98937.47
2022-10-25T22:53:09.925Z,98942.72
2022-10-25T22:56:17.259Z,98939.97
2022-10-25T22:59:20.232Z,98944.34
2022-10-25T23:02:22.815Z,98946.16
2022-10-25T23:05:25.696Z,98938.91
2022-10-25T23:08:28.679Z,98944.13
2022-10-25T23:11:33.515Z,98946.72
2022-10-25T23:14:35.929Z,98949.44
2022-10-25T23:17:38.797Z,98946.84
2022-10-25T23:20:51.527Z,98944.16
2022-10-25T23:23:55.015Z,98945.94
2022-10-25T23:26:57.564Z,98952.09
2022-10-25T23:30:03.208Z,98952.09
2022-10-25T23:33:05.857Z,98956.63
2022-10-25T23:36:12.130Z,98951.09
2022-10-25T23:39:14.707Z,98943.97
2022-10-25T23:42:17.523Z,98949.31
2022-10-25T23:45:19.968Z,98949.16
2022-10-25T23:48:22.750Z,98946.47
2022-10-25T23:51:25.233Z,98949.16
2022-10-25T23:54:28.000Z,98953.72
2022-10-25T23:57:30.443Z,98952.97
